LTCG Airport Information

Runway Information
Runway 11 Length 8661 ft width 148 ft
Elevation 104 ft Threshold 0 ft Heading 112
Runway 29 Length 8661 ft Width 148 ft
Elevation 95 ft Threshold 0 ft Heading 292
Airport Frequencies
Type APP Name APP Frequency 120.1 MHZ
Type GND Name GND Frequency 121.9 MHZ
Type TWR Name TWR Frequency 120.1 MHZ
Airport Navaids
Type NDB Name Trabzon Frequency 392 KHZ
Type VOR-DME Name Trabzon Frequency 114900 KHZ
Type NDB Name Trabzon Frequency 371 KHZ
Airport Weather Information & NOTAM
ADDS - METARS form results

(2311 UTC 15 August 2018)
 
METAR text: LTCG 152250Z 21004KT 9999 SCT035 23/19 Q1010 NOSIG
Conditions at: LTCG (TRABZON , TR) observed 2250 UTC 15 August 2018
Temperature: 23.0°C (73°F)
Dewpoint: 19.0°C (66°F) [RH = 78%]
Pressure (altimeter): 29.82 inches Hg (1010.0 mb)
Winds: from the SSW (210 degrees) at 5 MPH (4 knots; 2.1 m/s)
Visibility: 6 or more miles (10+ km)
Ceiling: at least 12,000 feet AGL
Clouds: scattered clouds at 3500 feet AGL
Weather: no significant weather observed at this time

METAR text: LTCG 152220Z 21004KT 180V250 9999 SCT035 24/19 Q1010 NOSIG
Conditions at: LTCG (TRABZON , TR) observed 2220 UTC 15 August 2018
Temperature: 24.0°C (75°F)
Dewpoint: 19.0°C (66°F) [RH = 74%]
Pressure (altimeter): 29.82 inches Hg (1010.0 mb)
Winds: from the SSW (210 degrees) at 5 MPH (4 knots; 2.1 m/s)
Visibility: 6 or more miles (10+ km)
Ceiling: at least 12,000 feet AGL
Clouds: scattered clouds at 3500 feet AGL
Weather: no significant weather observed at this time